sensor_id;sensor_type;location;lat;lon;timestamp;P1;durP1;ratioP1;P2;durP2;ratioP2
65477;SDS011;53678;39.642;22.430;2023-03-15T00:01:55;9.75;;;6.55;;
65477;SDS011;53678;39.642;22.430;2023-03-15T00:04:21;14.80;;;8.02;;
65477;SDS011;53678;39.642;22.430;2023-03-15T00:06:49;11.30;;;6.97;;
65477;SDS011;53678;39.642;22.430;2023-03-15T00:09:15;15.23;;;7.13;;
65477;SDS011;53678;39.642;22.430;2023-03-15T00:11:40;10.98;;;6.57;;
65477;SDS011;53678;39.642;22.430;2023-03-15T00:14:06;12.70;;;7.55;;
65477;SDS011;53678;39.642;22.430;2023-03-15T00:16:32;10.50;;;6.72;;
65477;SDS011;53678;39.642;22.430;2023-03-15T00:18:58;13.45;;;6.68;;
65477;SDS011;53678;39.642;22.430;2023-03-15T00:21:24;16.83;;;6.88;;
65477;SDS011;53678;39.642;22.430;2023-03-15T00:23:49;14.30;;;6.35;;
65477;SDS011;53678;39.642;22.430;2023-03-15T00:26:15;9.70;;;5.80;;
65477;SDS011;53678;39.642;22.430;2023-03-15T00:28:42;8.38;;;5.70;;
65477;SDS011;53678;39.642;22.430;2023-03-15T00:31:13;10.38;;;6.30;;
65477;SDS011;53678;39.642;22.430;2023-03-15T00:33:43;12.77;;;7.07;;
65477;SDS011;53678;39.642;22.430;2023-03-15T00:36:10;14.02;;;8.15;;
65477;SDS011;53678;39.642;22.430;2023-03-15T00:38:36;18.27;;;8.57;;
65477;SDS011;53678;39.642;22.430;2023-03-15T00:41:07;13.80;;;8.02;;
65477;SDS011;53678;39.642;22.430;2023-03-15T00:43:39;15.90;;;8.63;;
65477;SDS011;53678;39.642;22.430;2023-03-15T00:46:05;12.23;;;7.93;;
65477;SDS011;53678;39.642;22.430;2023-03-15T00:48:32;11.80;;;6.82;;
65477;SDS011;53678;39.642;22.430;2023-03-15T00:53:28;18.50;;;8.40;;
65477;SDS011;53678;39.642;22.430;2023-03-15T00:55:54;16.42;;;8.20;;
65477;SDS011;53678;39.642;22.430;2023-03-15T00:58:19;14.02;;;7.75;;
65477;SDS011;53678;39.642;22.430;2023-03-15T01:00:45;14.63;;;8.80;;
65477;SDS011;53678;39.642;22.430;2023-03-15T01:03:11;16.13;;;8.75;;
65477;SDS011;53678;39.642;22.430;2023-03-15T01:05:37;14.25;;;8.02;;
65477;SDS011;53678;39.642;22.430;2023-03-15T01:08:03;19.92;;;8.93;;
65477;SDS011;53678;39.642;22.430;2023-03-15T01:10:29;16.35;;;8.85;;
65477;SDS011;53678;39.642;22.430;2023-03-15T01:12:55;12.93;;;8.68;;
65477;SDS011;53678;39.642;22.430;2023-03-15T01:15:20;14.25;;;8.27;;
65477;SDS011;53678;39.642;22.430;2023-03-15T01:17:46;12.27;;;7.82;;
65477;SDS011;53678;39.642;22.430;2023-03-15T01:20:12;14.18;;;7.85;;
65477;SDS011;53678;39.642;22.430;2023-03-15T01:22:40;15.30;;;9.02;;
65477;SDS011;53678;39.642;22.430;2023-03-15T01:25:06;11.60;;;8.10;;
65477;SDS011;53678;39.642;22.430;2023-03-15T01:27:33;12.85;;;7.85;;
65477;SDS011;53678;39.642;22.430;2023-03-15T01:29:59;13.23;;;8.45;;
65477;SDS011;53678;39.642;22.430;2023-03-15T01:32:25;14.45;;;7.68;;
65477;SDS011;53678;39.642;22.430;2023-03-15T01:34:51;13.40;;;8.18;;
65477;SDS011;53678;39.642;22.430;2023-03-15T01:37:17;15.93;;;9.40;;
65477;SDS011;53678;39.642;22.430;2023-03-15T01:39:43;18.25;;;8.82;;
65477;SDS011;53678;39.642;22.430;2023-03-15T01:42:10;17.63;;;10.45;;
65477;SDS011;53678;39.642;22.430;2023-03-15T01:47:24;19.05;;;9.80;;
65477;SDS011;53678;39.642;22.430;2023-03-15T01:49:54;17.38;;;9.80;;
65477;SDS011;53678;39.642;22.430;2023-03-15T01:52:30;20.50;;;10.80;;
65477;SDS011;53678;39.642;22.430;2023-03-15T01:55:04;20.83;;;10.30;;
65477;SDS011;53678;39.642;22.430;2023-03-15T01:57:53;18.45;;;9.63;;
65477;SDS011;53678;39.642;22.430;2023-03-15T02:00:24;18.50;;;10.38;;
65477;SDS011;53678;39.642;22.430;2023-03-15T02:05:30;15.40;;;10.15;;
65477;SDS011;53678;39.642;22.430;2023-03-15T02:08:03;26.25;;;10.43;;
65477;SDS011;53678;39.642;22.430;2023-03-15T02:10:34;21.92;;;10.95;;
65477;SDS011;53678;39.642;22.430;2023-03-15T02:13:04;21.85;;;11.40;;
65477;SDS011;53678;39.642;22.430;2023-03-15T02:15:31;20.08;;;10.63;;
65477;SDS011;53678;39.642;22.430;2023-03-15T02:18:00;18.48;;;11.02;;
65477;SDS011;53678;39.642;22.430;2023-03-15T02:23:18;22.55;;;13.32;;
65477;SDS011;53678;39.642;22.430;2023-03-15T02:28:49;25.40;;;14.35;;
65477;SDS011;53678;39.642;22.430;2023-03-15T02:31:18;28.70;;;16.27;;
65477;SDS011;53678;39.642;22.430;2023-03-15T02:33:46;30.35;;;19.27;;
65477;SDS011;53678;39.642;22.430;2023-03-15T02:38:48;26.08;;;17.60;;
65477;SDS011;53678;39.642;22.430;2023-03-15T02:41:15;27.52;;;18.55;;
65477;SDS011;53678;39.642;22.430;2023-03-15T02:43:44;28.45;;;17.55;;
65477;SDS011;53678;39.642;22.430;2023-03-15T02:46:12;29.55;;;17.73;;
65477;SDS011;53678;39.642;22.430;2023-03-15T02:48:39;24.88;;;15.80;;
65477;SDS011;53678;39.642;22.430;2023-03-15T02:51:06;23.75;;;15.73;;
65477;SDS011;53678;39.642;22.430;2023-03-15T02:53:31;21.88;;;15.43;;
65477;SDS011;53678;39.642;22.430;2023-03-15T02:55:58;22.35;;;15.27;;
65477;SDS011;53678;39.642;22.430;2023-03-15T02:58:24;28.30;;;16.42;;
65477;SDS011;53678;39.642;22.430;2023-03-15T03:00:51;23.48;;;15.75;;
65477;SDS011;53678;39.642;22.430;2023-03-15T03:03:18;25.23;;;16.25;;
65477;SDS011;53678;39.642;22.430;2023-03-15T03:05:44;28.33;;;16.45;;
65477;SDS011;53678;39.642;22.430;2023-03-15T03:08:09;27.88;;;17.00;;
65477;SDS011;53678;39.642;22.430;2023-03-15T03:10:35;29.23;;;17.10;;
65477;SDS011;53678;39.642;22.430;2023-03-15T03:13:01;23.63;;;14.75;;
65477;SDS011;53678;39.642;22.430;2023-03-15T03:15:31;23.65;;;13.77;;
65477;SDS011;53678;39.642;22.430;2023-03-15T03:17:57;23.17;;;15.07;;
65477;SDS011;53678;39.642;22.430;2023-03-15T03:20:23;23.05;;;13.15;;
65477;SDS011;53678;39.642;22.430;2023-03-15T03:22:49;20.33;;;13.07;;
65477;SDS011;53678;39.642;22.430;2023-03-15T03:25:16;20.60;;;12.73;;
65477;SDS011;53678;39.642;22.430;2023-03-15T03:27:42;22.15;;;12.90;;
65477;SDS011;53678;39.642;22.430;2023-03-15T03:30:10;19.17;;;12.57;;
65477;SDS011;53678;39.642;22.430;2023-03-15T03:32:41;21.95;;;13.80;;
65477;SDS011;53678;39.642;22.430;2023-03-15T03:35:07;19.63;;;12.25;;
65477;SDS011;53678;39.642;22.430;2023-03-15T03:37:34;21.95;;;12.98;;
65477;SDS011;53678;39.642;22.430;2023-03-15T03:42:34;18.58;;;11.75;;
65477;SDS011;53678;39.642;22.430;2023-03-15T03:45:01;23.55;;;12.85;;
65477;SDS011;53678;39.642;22.430;2023-03-15T03:47:35;18.88;;;11.75;;
65477;SDS011;53678;39.642;22.430;2023-03-15T03:50:00;19.48;;;11.23;;
65477;SDS011;53678;39.642;22.430;2023-03-15T03:52:26;20.92;;;11.52;;
65477;SDS011;53678;39.642;22.430;2023-03-15T03:54:59;20.63;;;12.52;;
65477;SDS011;53678;39.642;22.430;2023-03-15T03:57:25;21.08;;;11.98;;
65477;SDS011;53678;39.642;22.430;2023-03-15T03:59:51;23.30;;;11.85;;
65477;SDS011;53678;39.642;22.430;2023-03-15T04:02:17;17.67;;;11.85;;
65477;SDS011;53678;39.642;22.430;2023-03-15T04:04:53;19.13;;;11.88;;
65477;SDS011;53678;39.642;22.430;2023-03-15T04:07:19;23.92;;;11.40;;
65477;SDS011;53678;39.642;22.430;2023-03-15T04:09:46;20.23;;;11.38;;
65477;SDS011;53678;39.642;22.430;2023-03-15T04:12:12;19.25;;;10.63;;
65477;SDS011;53678;39.642;22.430;2023-03-15T04:14:40;17.30;;;11.27;;
65477;SDS011;53678;39.642;22.430;2023-03-15T04:17:09;17.98;;;11.32;;
65477;SDS011;53678;39.642;22.430;2023-03-15T04:19:36;19.48;;;10.32;;
65477;SDS011;53678;39.642;22.430;2023-03-15T04:22:03;17.35;;;9.77;;
65477;SDS011;53678;39.642;22.430;2023-03-15T04:24:50;16.80;;;9.55;;
65477;SDS011;53678;39.642;22.430;2023-03-15T04:27:34;26.50;;;11.05;;
65477;SDS011;53678;39.642;22.430;2023-03-15T04:30:08;17.95;;;9.60;;
65477;SDS011;53678;39.642;22.430;2023-03-15T04:32:56;18.25;;;10.35;;
65477;SDS011;53678;39.642;22.430;2023-03-15T04:35:44;19.30;;;10.07;;
65477;SDS011;53678;39.642;22.430;2023-03-15T04:38:28;18.02;;;9.93;;
65477;SDS011;53678;39.642;22.430;2023-03-15T04:41:22;25.20;;;10.68;;
65477;SDS011;53678;39.642;22.430;2023-03-15T04:44:23;17.70;;;9.05;;
65477;SDS011;53678;39.642;22.430;2023-03-15T04:47:02;17.73;;;8.52;;
65477;SDS011;53678;39.642;22.430;2023-03-15T04:49:47;16.80;;;7.93;;
65477;SDS011;53678;39.642;22.430;2023-03-15T04:52:26;13.70;;;8.82;;
65477;SDS011;53678;39.642;22.430;2023-03-15T04:55:12;16.52;;;8.73;;
65477;SDS011;53678;39.642;22.430;2023-03-15T04:58:04;16.02;;;10.15;;
65477;SDS011;53678;39.642;22.430;2023-03-15T05:00:53;15.95;;;8.23;;
65477;SDS011;53678;39.642;22.430;2023-03-15T05:03:22;15.75;;;8.45;;
65477;SDS011;53678;39.642;22.430;2023-03-15T05:06:03;22.88;;;9.88;;
65477;SDS011;53678;39.642;22.430;2023-03-15T05:08:50;23.58;;;10.75;;
65477;SDS011;53678;39.642;22.430;2023-03-15T05:11:32;16.08;;;10.18;;
65477;SDS011;53678;39.642;22.430;2023-03-15T05:14:19;14.25;;;9.40;;
65477;SDS011;53678;39.642;22.430;2023-03-15T05:17:06;19.77;;;10.90;;
65477;SDS011;53678;39.642;22.430;2023-03-15T05:19:50;16.63;;;10.18;;
65477;SDS011;53678;39.642;22.430;2023-03-15T05:22:34;18.63;;;10.02;;
65477;SDS011;53678;39.642;22.430;2023-03-15T05:25:19;17.10;;;10.07;;
65477;SDS011;53678;39.642;22.430;2023-03-15T05:28:11;18.17;;;9.98;;
65477;SDS011;53678;39.642;22.430;2023-03-15T05:31:01;19.63;;;10.50;;
65477;SDS011;53678;39.642;22.430;2023-03-15T05:33:45;20.08;;;11.32;;
65477;SDS011;53678;39.642;22.430;2023-03-15T05:36:23;27.35;;;12.10;;
65477;SDS011;53678;39.642;22.430;2023-03-15T05:39:12;19.02;;;12.00;;
65477;SDS011;53678;39.642;22.430;2023-03-15T05:42:07;27.30;;;12.52;;
65477;SDS011;53678;39.642;22.430;2023-03-15T05:44:51;33.58;;;13.73;;
65477;SDS011;53678;39.642;22.430;2023-03-15T05:47:46;29.10;;;13.35;;
65477;SDS011;53678;39.642;22.430;2023-03-15T05:50:32;33.15;;;13.07;;
65477;SDS011;53678;39.642;22.430;2023-03-15T05:53:16;27.67;;;13.13;;
65477;SDS011;53678;39.642;22.430;2023-03-15T05:56:05;27.35;;;12.25;;
65477;SDS011;53678;39.642;22.430;2023-03-15T05:58:52;27.15;;;11.50;;
65477;SDS011;53678;39.642;22.430;2023-03-15T06:01:36;27.80;;;14.48;;
65477;SDS011;53678;39.642;22.430;2023-03-15T06:04:14;30.85;;;14.50;;
65477;SDS011;53678;39.642;22.430;2023-03-15T06:06:40;29.67;;;17.33;;
65477;SDS011;53678;39.642;22.430;2023-03-15T06:09:08;24.42;;;14.20;;
65477;SDS011;53678;39.642;22.430;2023-03-15T06:11:37;24.10;;;14.48;;
65477;SDS011;53678;39.642;22.430;2023-03-15T06:14:05;27.63;;;14.75;;
65477;SDS011;53678;39.642;22.430;2023-03-15T06:16:43;25.08;;;13.77;;
65477;SDS011;53678;39.642;22.430;2023-03-15T06:19:08;28.15;;;14.02;;
65477;SDS011;53678;39.642;22.430;2023-03-15T06:21:34;21.70;;;12.77;;
65477;SDS011;53678;39.642;22.430;2023-03-15T06:24:02;22.65;;;12.52;;
65477;SDS011;53678;39.642;22.430;2023-03-15T06:26:28;21.27;;;12.57;;
65477;SDS011;53678;39.642;22.430;2023-03-15T06:28:59;24.23;;;12.50;;
65477;SDS011;53678;39.642;22.430;2023-03-15T06:31:25;32.03;;;17.27;;
65477;SDS011;53678;39.642;22.430;2023-03-15T06:34:02;30.95;;;17.92;;
65477;SDS011;53678;39.642;22.430;2023-03-15T06:36:28;35.65;;;16.63;;
65477;SDS011;53678;39.642;22.430;2023-03-15T06:38:55;28.10;;;15.85;;
65477;SDS011;53678;39.642;22.430;2023-03-15T06:41:21;20.40;;;12.25;;
65477;SDS011;53678;39.642;22.430;2023-03-15T06:43:51;24.33;;;13.23;;
65477;SDS011;53678;39.642;22.430;2023-03-15T06:46:16;31.50;;;15.50;;
65477;SDS011;53678;39.642;22.430;2023-03-15T06:48:42;42.10;;;19.67;;
65477;SDS011;53678;39.642;22.430;2023-03-15T06:51:10;35.53;;;14.60;;
65477;SDS011;53678;39.642;22.430;2023-03-15T06:53:35;44.17;;;19.77;;
65477;SDS011;53678;39.642;22.430;2023-03-15T06:56:02;97.03;;;37.38;;
65477;SDS011;53678;39.642;22.430;2023-03-15T06:58:28;83.55;;;34.08;;
65477;SDS011;53678;39.642;22.430;2023-03-15T07:00:53;59.47;;;26.52;;
65477;SDS011;53678;39.642;22.430;2023-03-15T07:03:19;66.35;;;30.77;;
65477;SDS011;53678;39.642;22.430;2023-03-15T07:05:46;51.70;;;22.55;;
65477;SDS011;53678;39.642;22.430;2023-03-15T07:08:17;58.05;;;26.77;;
65477;SDS011;53678;39.642;22.430;2023-03-15T07:10:43;69.25;;;31.05;;
65477;SDS011;53678;39.642;22.430;2023-03-15T07:13:09;75.15;;;29.23;;
65477;SDS011;53678;39.642;22.430;2023-03-15T07:15:36;67.00;;;27.77;;
65477;SDS011;53678;39.642;22.430;2023-03-15T07:18:01;48.25;;;22.20;;
65477;SDS011;53678;39.642;22.430;2023-03-15T07:20:27;49.03;;;23.67;;
65477;SDS011;53678;39.642;22.430;2023-03-15T07:22:53;77.13;;;33.13;;
65477;SDS011;53678;39.642;22.430;2023-03-15T07:25:18;69.30;;;28.73;;
65477;SDS011;53678;39.642;22.430;2023-03-15T07:27:48;62.70;;;27.73;;
65477;SDS011;53678;39.642;22.430;2023-03-15T07:30:15;58.60;;;23.33;;
65477;SDS011;53678;39.642;22.430;2023-03-15T07:32:41;32.55;;;17.23;;
65477;SDS011;53678;39.642;22.430;2023-03-15T07:35:07;33.20;;;14.30;;
65477;SDS011;53678;39.642;22.430;2023-03-15T07:37:33;22.95;;;12.30;;
65477;SDS011;53678;39.642;22.430;2023-03-15T07:39:59;22.70;;;13.98;;
65477;SDS011;53678;39.642;22.430;2023-03-15T07:42:36;23.85;;;13.15;;
65477;SDS011;53678;39.642;22.430;2023-03-15T07:45:03;21.13;;;11.95;;
65477;SDS011;53678;39.642;22.430;2023-03-15T07:47:30;21.13;;;13.52;;
65477;SDS011;53678;39.642;22.430;2023-03-15T07:49:55;20.73;;;12.80;;
65477;SDS011;53678;39.642;22.430;2023-03-15T07:52:21;21.42;;;14.02;;
65477;SDS011;53678;39.642;22.430;2023-03-15T07:54:47;21.52;;;13.70;;
65477;SDS011;53678;39.642;22.430;2023-03-15T07:57:13;18.98;;;12.90;;
65477;SDS011;53678;39.642;22.430;2023-03-15T07:59:39;19.40;;;11.95;;
65477;SDS011;53678;39.642;22.430;2023-03-15T08:02:04;20.58;;;12.75;;
65477;SDS011;53678;39.642;22.430;2023-03-15T08:04:30;23.15;;;13.57;;
65477;SDS011;53678;39.642;22.430;2023-03-15T08:06:58;20.75;;;12.25;;
65477;SDS011;53678;39.642;22.430;2023-03-15T08:09:23;22.90;;;11.82;;
65477;SDS011;53678;39.642;22.430;2023-03-15T08:11:49;22.42;;;12.07;;
65477;SDS011;53678;39.642;22.430;2023-03-15T08:14:15;17.30;;;10.70;;
65477;SDS011;53678;39.642;22.430;2023-03-15T08:16:40;18.83;;;11.20;;
65477;SDS011;53678;39.642;22.430;2023-03-15T08:19:06;16.38;;;9.85;;
65477;SDS011;53678;39.642;22.430;2023-03-15T08:21:32;24.95;;;11.32;;
65477;SDS011;53678;39.642;22.430;2023-03-15T08:23:58;21.17;;;10.82;;
65477;SDS011;53678;39.642;22.430;2023-03-15T08:26:24;24.55;;;12.63;;
65477;SDS011;53678;39.642;22.430;2023-03-15T08:28:50;22.13;;;11.95;;
65477;SDS011;53678;39.642;22.430;2023-03-15T08:31:17;23.50;;;13.10;;
65477;SDS011;53678;39.642;22.430;2023-03-15T08:33:43;25.48;;;14.65;;
65477;SDS011;53678;39.642;22.430;2023-03-15T08:36:09;32.72;;;17.10;;
65477;SDS011;53678;39.642;22.430;2023-03-15T08:38:35;32.63;;;18.02;;
65477;SDS011;53678;39.642;22.430;2023-03-15T08:41:01;28.08;;;17.33;;
65477;SDS011;53678;39.642;22.430;2023-03-15T08:43:27;29.00;;;17.40;;
65477;SDS011;53678;39.642;22.430;2023-03-15T08:45:53;21.95;;;14.57;;
65477;SDS011;53678;39.642;22.430;2023-03-15T08:48:19;25.23;;;15.02;;
65477;SDS011;53678;39.642;22.430;2023-03-15T08:50:45;27.35;;;16.08;;
65477;SDS011;53678;39.642;22.430;2023-03-15T08:53:10;23.33;;;16.10;;
65477;SDS011;53678;39.642;22.430;2023-03-15T08:55:36;26.15;;;14.45;;
65477;SDS011;53678;39.642;22.430;2023-03-15T08:58:03;23.83;;;15.15;;
65477;SDS011;53678;39.642;22.430;2023-03-15T09:00:29;23.48;;;15.55;;
65477;SDS011;53678;39.642;22.430;2023-03-15T09:02:56;23.65;;;15.60;;
65477;SDS011;53678;39.642;22.430;2023-03-15T09:05:22;25.45;;;16.40;;
65477;SDS011;53678;39.642;22.430;2023-03-15T09:07:49;24.42;;;15.73;;
65477;SDS011;53678;39.642;22.430;2023-03-15T09:10:17;24.55;;;15.20;;
65477;SDS011;53678;39.642;22.430;2023-03-15T09:12:45;27.08;;;13.93;;
65477;SDS011;53678;39.642;22.430;2023-03-15T09:15:12;24.00;;;14.05;;
65477;SDS011;53678;39.642;22.430;2023-03-15T09:17:39;23.40;;;14.25;;
65477;SDS011;53678;39.642;22.430;2023-03-15T09:20:06;20.88;;;13.43;;
65477;SDS011;53678;39.642;22.430;2023-03-15T09:22:42;25.92;;;11.75;;
65477;SDS011;53678;39.642;22.430;2023-03-15T09:25:08;18.27;;;11.63;;
65477;SDS011;53678;39.642;22.430;2023-03-15T09:27:34;16.88;;;12.18;;
65477;SDS011;53678;39.642;22.430;2023-03-15T09:30:00;16.80;;;11.60;;
65477;SDS011;53678;39.642;22.430;2023-03-15T09:32:26;20.05;;;11.68;;
65477;SDS011;53678;39.642;22.430;2023-03-15T09:34:53;21.02;;;10.55;;
65477;SDS011;53678;39.642;22.430;2023-03-15T09:37:18;42.67;;;11.80;;
65477;SDS011;53678;39.642;22.430;2023-03-15T09:39:46;18.65;;;10.55;;
65477;SDS011;53678;39.642;22.430;2023-03-15T09:42:16;17.42;;;9.75;;
65477;SDS011;53678;39.642;22.430;2023-03-15T09:44:47;19.88;;;8.38;;
65477;SDS011;53678;39.642;22.430;2023-03-15T09:50:40;20.63;;;8.63;;
65477;SDS011;53678;39.642;22.430;2023-03-15T09:56:24;50.78;;;14.23;;
65477;SDS011;53678;39.642;22.430;2023-03-15T09:58:58;29.02;;;9.90;;
65477;SDS011;53678;39.642;22.430;2023-03-15T10:01:33;32.17;;;9.93;;
65477;SDS011;53678;39.642;22.430;2023-03-15T10:04:23;30.00;;;7.20;;
65477;SDS011;53678;39.642;22.430;2023-03-15T10:06:55;46.70;;;9.43;;
65477;SDS011;53678;39.642;22.430;2023-03-15T10:09:23;30.17;;;8.55;;
65477;SDS011;53678;39.642;22.430;2023-03-15T10:17:12;16.20;;;7.40;;
65477;SDS011;53678;39.642;22.430;2023-03-15T10:19:50;40.33;;;10.25;;
65477;SDS011;53678;39.642;22.430;2023-03-15T10:22:40;14.55;;;6.78;;
65477;SDS011;53678;39.642;22.430;2023-03-15T10:27:42;13.75;;;7.80;;
65477;SDS011;53678;39.642;22.430;2023-03-15T10:32:57;15.65;;;8.52;;
65477;SDS011;53678;39.642;22.430;2023-03-15T10:35:28;20.50;;;8.35;;
65477;SDS011;53678;39.642;22.430;2023-03-15T10:37:54;14.27;;;7.95;;
65477;SDS011;53678;39.642;22.430;2023-03-15T10:43:17;15.70;;;7.72;;
65477;SDS011;53678;39.642;22.430;2023-03-15T10:48:32;13.10;;;8.07;;
65477;SDS011;53678;39.642;22.430;2023-03-15T10:51:01;14.13;;;8.57;;
65477;SDS011;53678;39.642;22.430;2023-03-15T10:53:31;13.90;;;8.52;;
65477;SDS011;53678;39.642;22.430;2023-03-15T10:56:04;11.63;;;7.55;;
65477;SDS011;53678;39.642;22.430;2023-03-15T11:01:07;16.45;;;6.60;;
65477;SDS011;53678;39.642;22.430;2023-03-15T11:03:47;9.27;;;5.50;;
65477;SDS011;53678;39.642;22.430;2023-03-15T11:09:36;12.00;;;6.70;;
65477;SDS011;53678;39.642;22.430;2023-03-15T11:12:04;15.48;;;7.28;;
65477;SDS011;53678;39.642;22.430;2023-03-15T11:14:42;13.45;;;6.85;;
65477;SDS011;53678;39.642;22.430;2023-03-15T11:17:20;18.55;;;6.95;;
65477;SDS011;53678;39.642;22.430;2023-03-15T11:19:50;10.05;;;5.97;;
65477;SDS011;53678;39.642;22.430;2023-03-15T11:22:18;12.43;;;6.25;;
65477;SDS011;53678;39.642;22.430;2023-03-15T11:24:43;13.40;;;6.10;;
65477;SDS011;53678;39.642;22.430;2023-03-15T11:27:10;8.50;;;5.65;;
65477;SDS011;53678;39.642;22.430;2023-03-15T11:29:38;10.18;;;6.38;;
65477;SDS011;53678;39.642;22.430;2023-03-15T11:32:21;11.30;;;5.93;;
65477;SDS011;53678;39.642;22.430;2023-03-15T11:35:04;12.00;;;5.88;;
65477;SDS011;53678;39.642;22.430;2023-03-15T11:37:34;11.80;;;6.10;;
65477;SDS011;53678;39.642;22.430;2023-03-15T11:40:22;12.95;;;5.97;;
65477;SDS011;53678;39.642;22.430;2023-03-15T11:48:19;12.57;;;6.93;;
65477;SDS011;53678;39.642;22.430;2023-03-15T11:51:00;14.93;;;6.10;;
65477;SDS011;53678;39.642;22.430;2023-03-15T11:53:29;9.75;;;5.53;;
65477;SDS011;53678;39.642;22.430;2023-03-15T12:01:59;14.18;;;5.60;;
65477;SDS011;53678;39.642;22.430;2023-03-15T12:07:03;6.25;;;4.10;;
65477;SDS011;53678;39.642;22.430;2023-03-15T12:09:50;16.23;;;7.80;;
65477;SDS011;53678;39.642;22.430;2023-03-15T12:17:50;11.27;;;3.28;;
65477;SDS011;53678;39.642;22.430;2023-03-15T12:20:25;6.22;;;3.65;;
65477;SDS011;53678;39.642;22.430;2023-03-15T12:25:44;18.23;;;5.45;;
65477;SDS011;53678;39.642;22.430;2023-03-15T12:28:21;9.63;;;3.42;;
65477;SDS011;53678;39.642;22.430;2023-03-15T12:30:53;8.80;;;3.70;;
65477;SDS011;53678;39.642;22.430;2023-03-15T12:33:23;5.90;;;2.70;;
65477;SDS011;53678;39.642;22.430;2023-03-15T12:35:50;7.22;;;2.60;;
65477;SDS011;53678;39.642;22.430;2023-03-15T12:38:25;7.18;;;2.67;;
65477;SDS011;53678;39.642;22.430;2023-03-15T12:41:00;14.90;;;4.35;;
65477;SDS011;53678;39.642;22.430;2023-03-15T12:43:45;7.20;;;3.23;;
65477;SDS011;53678;39.642;22.430;2023-03-15T12:54:33;6.63;;;2.63;;
65477;SDS011;53678;39.642;22.430;2023-03-15T12:57:03;9.30;;;3.63;;
65477;SDS011;53678;39.642;22.430;2023-03-15T13:02:24;21.48;;;4.00;;
65477;SDS011;53678;39.642;22.430;2023-03-15T13:05:15;6.50;;;2.28;;
65477;SDS011;53678;39.642;22.430;2023-03-15T13:10:29;6.63;;;2.58;;
65477;SDS011;53678;39.642;22.430;2023-03-15T13:21:34;5.50;;;2.90;;
65477;SDS011;53678;39.642;22.430;2023-03-15T13:24:02;5.43;;;2.22;;
65477;SDS011;53678;39.642;22.430;2023-03-15T13:26:47;8.65;;;2.47;;
65477;SDS011;53678;39.642;22.430;2023-03-15T13:29:18;7.55;;;2.50;;
65477;SDS011;53678;39.642;22.430;2023-03-15T13:32:01;7.10;;;3.35;;
65477;SDS011;53678;39.642;22.430;2023-03-15T13:34:41;6.55;;;2.60;;
65477;SDS011;53678;39.642;22.430;2023-03-15T13:37:20;3.67;;;2.40;;
65477;SDS011;53678;39.642;22.430;2023-03-15T13:42:22;4.00;;;2.78;;
65477;SDS011;53678;39.642;22.430;2023-03-15T13:47:33;5.70;;;3.08;;
65477;SDS011;53678;39.642;22.430;2023-03-15T13:50:01;7.35;;;2.30;;
65477;SDS011;53678;39.642;22.430;2023-03-15T13:52:30;5.20;;;2.95;;
65477;SDS011;53678;39.642;22.430;2023-03-15T13:54:56;4.10;;;2.20;;
65477;SDS011;53678;39.642;22.430;2023-03-15T13:57:23;4.20;;;2.20;;
65477;SDS011;53678;39.642;22.430;2023-03-15T14:02:20;7.63;;;3.00;;
65477;SDS011;53678;39.642;22.430;2023-03-15T14:04:51;6.72;;;2.97;;
65477;SDS011;53678;39.642;22.430;2023-03-15T14:07:33;7.22;;;3.60;;
65477;SDS011;53678;39.642;22.430;2023-03-15T14:12:56;6.63;;;3.08;;
65477;SDS011;53678;39.642;22.430;2023-03-15T14:18:32;9.98;;;4.28;;
65477;SDS011;53678;39.642;22.430;2023-03-15T14:20:45;9.60;;;3.95;;
65477;SDS011;53678;39.642;22.430;2023-03-15T14:23:18;10.23;;;4.45;;
65477;SDS011;53678;39.642;22.430;2023-03-15T14:25:49;12.52;;;4.88;;
65477;SDS011;53678;39.642;22.430;2023-03-15T14:28:19;8.40;;;3.75;;
65477;SDS011;53678;39.642;22.430;2023-03-15T14:30:53;6.72;;;2.92;;
65477;SDS011;53678;39.642;22.430;2023-03-15T14:33:27;7.78;;;3.40;;
65477;SDS011;53678;39.642;22.430;2023-03-15T14:35:57;5.88;;;3.60;;
65477;SDS011;53678;39.642;22.430;2023-03-15T14:38:25;6.88;;;3.75;;
65477;SDS011;53678;39.642;22.430;2023-03-15T14:41:08;6.53;;;4.00;;
65477;SDS011;53678;39.642;22.430;2023-03-15T14:43:42;8.70;;;4.88;;
65477;SDS011;53678;39.642;22.430;2023-03-15T14:46:08;8.15;;;4.00;;
65477;SDS011;53678;39.642;22.430;2023-03-15T14:48:34;11.43;;;4.05;;
65477;SDS011;53678;39.642;22.430;2023-03-15T14:51:00;6.97;;;3.97;;
65477;SDS011;53678;39.642;22.430;2023-03-15T14:53:30;9.25;;;4.35;;
65477;SDS011;53678;39.642;22.430;2023-03-15T14:55:59;7.32;;;4.47;;
65477;SDS011;53678;39.642;22.430;2023-03-15T14:58:25;9.52;;;4.22;;
65477;SDS011;53678;39.642;22.430;2023-03-15T15:00:52;7.72;;;4.43;;
65477;SDS011;53678;39.642;22.430;2023-03-15T15:06:00;8.05;;;4.80;;
65477;SDS011;53678;39.642;22.430;2023-03-15T15:08:26;10.40;;;5.95;;
65477;SDS011;53678;39.642;22.430;2023-03-15T15:10:54;8.57;;;5.70;;
65477;SDS011;53678;39.642;22.430;2023-03-15T15:13:25;8.48;;;5.13;;
65477;SDS011;53678;39.642;22.430;2023-03-15T15:15:52;8.07;;;4.72;;
65477;SDS011;53678;39.642;22.430;2023-03-15T15:18:18;7.88;;;5.00;;
65477;SDS011;53678;39.642;22.430;2023-03-15T15:20:45;10.18;;;5.75;;
65477;SDS011;53678;39.642;22.430;2023-03-15T15:23:11;10.45;;;5.68;;
65477;SDS011;53678;39.642;22.430;2023-03-15T15:25:44;6.82;;;4.32;;
65477;SDS011;53678;39.642;22.430;2023-03-15T15:28:10;11.10;;;5.60;;
65477;SDS011;53678;39.642;22.430;2023-03-15T15:30:36;13.23;;;6.25;;
65477;SDS011;53678;39.642;22.430;2023-03-15T15:33:02;9.35;;;5.70;;
65477;SDS011;53678;39.642;22.430;2023-03-15T15:35:28;11.52;;;6.00;;
65477;SDS011;53678;39.642;22.430;2023-03-15T15:37:55;8.90;;;5.88;;
65477;SDS011;53678;39.642;22.430;2023-03-15T15:40:24;10.00;;;5.10;;
65477;SDS011;53678;39.642;22.430;2023-03-15T15:42:52;11.23;;;5.82;;
65477;SDS011;53678;39.642;22.430;2023-03-15T15:45:18;12.45;;;5.53;;
65477;SDS011;53678;39.642;22.430;2023-03-15T15:47:45;15.98;;;6.88;;
65477;SDS011;53678;39.642;22.430;2023-03-15T15:50:15;7.95;;;5.30;;
65477;SDS011;53678;39.642;22.430;2023-03-15T15:52:42;7.78;;;4.75;;
65477;SDS011;53678;39.642;22.430;2023-03-15T15:55:14;9.55;;;4.70;;
65477;SDS011;53678;39.642;22.430;2023-03-15T15:57:42;8.80;;;4.82;;
65477;SDS011;53678;39.642;22.430;2023-03-15T16:00:12;10.43;;;5.90;;
65477;SDS011;53678;39.642;22.430;2023-03-15T16:02:40;12.93;;;5.63;;
65477;SDS011;53678;39.642;22.430;2023-03-15T16:05:06;10.73;;;6.53;;
65477;SDS011;53678;39.642;22.430;2023-03-15T16:07:34;13.00;;;5.50;;
65477;SDS011;53678;39.642;22.430;2023-03-15T16:10:04;12.25;;;5.75;;
65477;SDS011;53678;39.642;22.430;2023-03-15T16:12:32;8.38;;;5.43;;
65477;SDS011;53678;39.642;22.430;2023-03-15T16:14:58;8.82;;;5.47;;
65477;SDS011;53678;39.642;22.430;2023-03-15T16:17:24;8.93;;;6.40;;
65477;SDS011;53678;39.642;22.430;2023-03-15T16:19:51;13.10;;;7.35;;
65477;SDS011;53678;39.642;22.430;2023-03-15T16:22:20;11.73;;;6.85;;
65477;SDS011;53678;39.642;22.430;2023-03-15T16:24:49;10.98;;;5.88;;
65477;SDS011;53678;39.642;22.430;2023-03-15T16:27:20;13.43;;;6.40;;